Time;durP1;ratioP1;P1;durP2;ratioP2;P2;SDS_P1;SDS_P2;PMS_P1;PMS_P2;Temp;Humidity;BMP_temperature;BMP_pressure;BME280_temperature;BME280_humidity;BME280_pressure;Samples;Min_cycle;Max_cycle;Signal;HPM_P1;HPM_P2
2022/09/01 00:02:19;;;;;;;2.50;1.87;;;;;;;19.63;60.27;99801.16;4319002;33;33955;-75
2022/09/01 00:04:47;;;;;;;3.03;1.87;;;;;;;20.27;61.99;99800.31;4318529;33;34032;-91
2022/09/01 00:07:15;;;;;;;3.22;2.20;;;;;;;20.46;61.60;99816.66;4322252;33;34009;-94
2022/09/01 00:09:42;;;;;;;2.20;1.60;;;;;;;20.36;61.91;99809.44;4333511;33;34303;-75
2022/09/01 00:12:10;;;;;;;3.03;2.10;;;;;;;20.53;61.64;99816.22;4333384;33;34010;-91
2022/09/01 00:14:39;;;;;;;2.55;1.77;;;;;;;20.31;62.83;99826.09;4333117;33;35310;-75
2022/09/01 00:17:09;;;;;;;3.70;2.03;;;;;;;20.35;63.33;99829.06;4332521;33;34033;-75
2022/09/01 00:19:38;;;;;;;2.33;1.73;;;;;;;20.17;64.26;99828.94;4318722;33;33486;-73
2022/09/01 00:22:06;;;;;;;2.85;2.12;;;;;;;20.23;64.22;99824.91;4317897;33;33973;-73
2022/09/01 00:24:34;;;;;;;3.97;2.20;;;;;;;19.91;65.41;99825.09;4305452;33;34259;-75
2022/09/01 00:27:02;;;;;;;2.92;2.10;;;;;;;20.11;65.04;99830.16;4318105;33;33651;-92
2022/09/01 00:29:29;;;;;;;2.50;1.87;;;;;;;20.09;65.26;99829.66;4318522;33;34371;-77
2022/09/01 00:31:57;;;;;;;3.80;2.40;;;;;;;20.20;64.64;99836.56;4318410;33;33450;-75
2022/09/01 00:34:25;;;;;;;4.20;2.20;;;;;;;19.66;65.65;99836.31;4318323;33;34187;-74
2022/09/01 00:36:52;;;;;;;3.30;2.15;;;;;;;19.34;66.30;99837.25;4304925;33;33922;-75
2022/09/01 00:39:20;;;;;;;4.60;2.00;;;;;;;19.66;65.97;99835.50;4318149;33;33517;-74
2022/09/01 08:42:38;;;;;;;3.92;1.90;;;;;;;18.09;78.06;99884.66;4505015;31;82649;-73
2022/09/01 08:45:18;;;;;;;1.98;1.35;;;;;;;18.09;78.06;99884.66;4511668;31;33115;-73
2022/09/01 08:47:46;;;;;;;2.60;1.77;;;;;;;17.90;75.81;99881.88;4510702;31;33676;-71
2022/09/01 08:50:37;;;;;;;1.62;1.20;;;;;;;18.18;73.51;99889.16;4494824;32;34100;-70
2022/09/01 08:53:22;;;;;;;2.35;1.52;;;;;;;18.06;67.64;99891.53;4494329;32;34434;-71
2022/09/01 08:55:54;;;;;;;2.28;1.40;;;;;;;18.39;70.71;99886.13;4479378;31;34578;-70
2022/09/01 08:58:22;;;;;;;1.73;1.20;;;;;;;18.49;70.04;99877.75;4494863;31;33695;-71
2022/09/01 09:00:56;;;;;;;1.67;1.20;;;;;;;18.56;68.97;99886.41;4496014;31;34196;-73
2022/09/01 09:03:42;;;;;;;1.52;1.33;;;;;;;18.44;67.06;99883.31;4495077;31;33818;-73
2022/09/01 09:06:16;;;;;;;2.15;1.35;;;;;;;17.88;70.13;99884.09;4510029;31;33141;-73
2022/09/01 09:08:44;;;;;;;1.90;1.50;;;;;;;18.47;66.92;99887.41;4495030;31;33266;-73
2022/09/01 09:11:28;;;;;;;2.17;1.48;;;;;;;18.90;70.23;99885.38;4498117;31;34255;-73
2022/09/01 09:14:10;;;;;;;2.05;1.55;;;;;;;19.03;72.11;99876.34;4504158;31;33948;-71
2022/09/01 09:16:41;;;;;;;2.37;1.65;;;;;;;18.96;74.32;99881.41;4494922;32;33255;-73
2022/09/01 09:19:36;;;;;;;2.08;1.50;;;;;;;18.47;73.00;99881.91;4497309;31;35625;-73
2022/09/01 09:22:09;;;;;;;1.87;1.50;;;;;;;18.73;71.69;99880.38;4496252;32;34218;-71
2022/09/01 09:25:08;;;;;;;2.37;1.58;;;;;;;19.09;70.74;99867.97;4496991;32;33625;-72
2022/09/01 09:27:38;;;;;;;2.10;1.52;;;;;;;19.33;71.75;99865.06;4498271;31;33102;-71
2022/09/01 09:30:19;;;;;;;1.42;1.27;;;;;;;19.89;70.76;99863.94;4506742;31;34854;-72
2022/09/01 09:32:54;;;;;;;2.45;1.92;;;;;;;19.04;72.11;99863.37;4509429;31;33918;-69
2022/09/01 09:35:45;;;;;;;2.27;1.70;;;;;;;19.04;71.23;99863.37;4495453;32;34286;-72
2022/09/01 09:38:18;;;;;;;2.05;1.40;;;;;;;18.93;69.34;99856.44;4480754;32;33622;-68
2022/09/01 09:41:26;;;;;;;2.78;1.50;;;;;;;19.83;69.18;99855.00;4492108;32;34626;-71
2022/09/01 09:44:06;;;;;;;1.35;1.23;;;;;;;20.01;69.36;99852.41;4423928;32;34307;-70
2022/09/01 09:46:41;;;;;;;2.12;1.58;;;;;;;19.73;65.18;99859.91;4424069;32;33296;-69
2022/09/01 09:49:22;;;;;;;3.33;1.65;;;;;;;20.27;66.91;99849.91;4455805;32;34132;-69
2022/09/01 09:52:09;;;;;;;2.05;1.55;;;;;;;19.34;67.03;99844.69;4470252;32;34576;-67
2022/09/01 09:54:39;;;;;;;2.00;1.40;;;;;;;20.07;69.03;99860.25;4469984;32;34933;-68
2022/09/01 09:57:06;;;;;;;2.97;1.33;;;;;;;19.30;63.17;99847.22;4469056;32;34647;-69
2022/09/01 09:59:57;;;;;;;1.83;1.33;;;;;;;19.24;68.53;99846.53;4475140;32;33145;-70
2022/09/01 10:02:38;;;;;;;2.08;1.20;;;;;;;19.34;68.31;99844.69;4483518;32;34792;-72
2022/09/01 10:05:28;;;;;;;1.42;1.25;;;;;;;19.65;65.74;99851.22;4484614;32;33943;-69
2022/09/01 10:07:57;;;;;;;2.35;1.30;;;;;;;19.64;66.28;99848.78;4485339;32;33517;-70
2022/09/01 10:10:24;;;;;;;1.42;1.23;;;;;;;19.30;66.58;99849.16;4489309;31;34026;-71
2022/09/01 10:12:53;;;;;;;1.42;1.12;;;;;;;19.19;65.39;99846.59;4486089;31;33837;-70
2022/09/01 10:15:24;;;;;;;1.40;1.15;;;;;;;19.27;65.24;99845.09;4485805;32;34262;-69
2022/09/01 10:17:53;;;;;;;2.05;1.30;;;;;;;19.54;67.68;99849.78;4482022;32;33586;-75
2022/09/01 10:20:55;;;;;;;3.78;1.27;;;;;;;20.04;68.21;99843.53;4482033;32;33378;-72
2022/09/01 10:23:23;;;;;;;1.98;1.27;;;;;;;20.16;63.40;99843.00;4473125;32;33254;-75
2022/09/01 10:26:25;;;;;;;1.65;1.27;;;;;;;20.18;62.82;99835.25;4484699;32;34311;-77
2022/09/01 10:29:06;;;;;;;2.35;1.02;;;;;;;19.51;62.01;99838.59;4478187;32;34755;-77
2022/09/01 10:31:40;;;;;;;1.58;1.20;;;;;;;19.33;60.17;99835.63;4484410;31;34261;-67
2022/09/01 10:34:12;;;;;;;2.10;1.12;;;;;;;19.30;61.82;99835.41;4492460;31;34671;-74
2022/09/01 10:36:41;;;;;;;1.67;1.30;;;;;;;19.38;60.64;99829.22;4484731;32;34273;-74
2022/09/01 10:39:11;;;;;;;1.10;1.00;;;;;;;20.04;59.59;99827.84;4483588;32;33839;-71
2022/09/01 10:41:41;;;;;;;1.33;1.17;;;;;;;19.74;58.05;99820.22;4493612;31;33425;-73
2022/09/01 10:44:10;;;;;;;1.92;1.17;;;;;;;19.22;58.98;99820.41;4488050;31;33932;-71
2022/09/01 10:46:40;;;;;;;1.87;1.30;;;;;;;19.35;56.24;99827.06;4483560;32;34279;-72
2022/09/01 10:49:27;;;;;;;1.10;1.00;;;;;;;19.79;60.40;99829.19;4479215;31;34143;-70
2022/09/01 10:51:57;;;;;;;1.83;1.15;;;;;;;19.44;59.79;99825.25;4485614;32;33512;-72
2022/09/01 10:54:38;;;;;;;1.62;1.20;;;;;;;19.42;58.37;99825.53;4484174;32;33758;-74
2022/09/01 10:57:17;;;;;;;1.83;1.10;;;;;;;19.46;54.47;99815.56;4482936;32;34810;-72
2022/09/01 10:59:45;;;;;;;1.10;1.00;;;;;;;19.77;55.29;99819.63;4475040;32;33488;-70
2022/09/01 11:02:23;;;;;;;1.75;0.98;;;;;;;19.59;55.61;99815.81;4482855;32;33330;-70
2022/09/01 11:04:58;;;;;;;1.20;1.10;;;;;;;19.91;56.12;99811.34;4483971;32;33947;-71
2022/09/01 11:07:34;;;;;;;1.65;1.23;;;;;;;20.36;55.14;99806.69;4484028;32;33803;-70
2022/09/01 11:10:47;;;;;;;1.73;1.25;;;;;;;19.78;51.82;99815.75;4484223;32;34471;-71
2022/09/01 11:13:48;;;;;;;1.60;1.10;;;;;;;20.58;53.67;99818.87;4483347;32;33833;-71
2022/09/01 11:16:38;;;;;;;3.90;1.10;;;;;;;20.18;50.67;99818.72;4482383;32;34022;-69
2022/09/01 11:19:41;;;;;;;1.20;0.90;;;;;;;20.22;51.11;99808.69;4483092;32;33730;-72
2022/09/01 11:22:14;;;;;;;2.47;1.40;;;;;;;20.19;49.68;99809.31;4484162;32;33685;-70
2022/09/01 11:24:43;;;;;;;1.98;1.05;;;;;;;20.49;48.05;99805.81;4482759;32;33187;-71
2022/09/01 11:27:12;;;;;;;1.25;1.00;;;;;;;21.05;50.08;99806.31;4483009;32;33814;-72
2022/09/01 11:29:51;;;;;;;1.50;1.00;;;;;;;21.14;48.62;99816.59;4469633;32;35012;-71
2022/09/01 11:32:27;;;;;;;1.23;1.00;;;;;;;21.29;47.48;99814.25;4482538;32;33910;-70
2022/09/01 11:34:54;;;;;;;1.90;0.90;;;;;;;20.81;46.11;99812.22;4483557;32;34227;-71
2022/09/01 11:37:23;;;;;;;1.25;0.90;;;;;;;21.14;48.09;99805.56;4483297;32;34518;-74
2022/09/01 11:39:57;;;;;;;1.65;1.00;;;;;;;21.16;46.79;99800.53;4482609;32;34678;-74
2022/09/01 11:42:42;;;;;;;1.30;1.10;;;;;;;21.18;48.77;99812.88;4483883;32;34056;-73
2022/09/01 11:45:17;;;;;;;1.80;1.10;;;;;;;21.26;45.88;99806.59;4467936;31;33430;-75
2022/09/01 11:47:51;;;;;;;1.17;0.93;;;;;;;21.30;43.20;99807.56;4468370;32;34440;-76
2022/09/01 11:50:39;;;;;;;1.50;1.15;;;;;;;21.40;42.67;99800.94;4483336;32;34332;-75
2022/09/01 11:53:10;;;;;;;1.05;0.90;;;;;;;21.41;42.91;99796.25;4467878;32;33548;-74
2022/09/01 11:55:41;;;;;;;1.00;0.80;;;;;;;21.68;40.71;99801.56;4482122;32;32190;-77
2022/09/01 11:58:31;;;;;;;1.35;1.10;;;;;;;21.34;43.95;99793.97;4483165;32;34127;-73
2022/09/01 12:01:16;;;;;;;1.23;0.90;;;;;;;21.46;42.10;99794.16;4481623;32;34286;-77
2022/09/01 12:03:45;;;;;;;2.95;0.90;;;;;;;21.32;43.22;99796.22;4482713;32;33929;-77
2022/09/01 12:06:23;;;;;;;1.37;0.90;;;;;;;21.73;42.54;99789.53;4468832;32;32911;-78
2022/09/01 12:09:03;;;;;;;2.65;1.30;;;;;;;21.73;41.30;99785.94;4482535;32;34747;-74
2022/09/01 12:11:33;;;;;;;1.12;0.90;;;;;;;21.57;40.39;99783.62;4482491;32;34259;-78
2022/09/01 12:14:09;;;;;;;1.62;1.17;;;;;;;21.30;42.95;99779.19;4480578;32;34492;-75
2022/09/01 12:16:40;;;;;;;1.75;0.85;;;;;;;21.60;42.44;99779.44;4482592;32;33389;-73
2022/09/01 12:19:25;;;;;;;1.80;0.70;;;;;;;21.79;41.50;99785.50;4482206;32;34859;-74
2022/09/01 12:22:12;;;;;;;1.20;1.10;;;;;;;22.10;42.54;99787.28;4472102;32;35144;-68
2022/09/01 12:24:46;;;;;;;1.55;1.00;;;;;;;22.12;42.41;99782.25;4482725;32;33975;-75
2022/09/01 12:27:13;;;;;;;1.50;0.95;;;;;;;21.97;40.87;99777.22;4483462;32;33325;-74
2022/09/01 12:29:42;;;;;;;1.35;1.10;;;;;;;22.50;39.64;99770.53;4477435;32;34209;-71
2022/09/01 12:32:10;;;;;;;1.35;1.00;;;;;;;22.35;38.91;99774.59;4472644;32;35178;-71
2022/09/01 12:34:46;;;;;;;1.52;1.00;;;;;;;22.20;41.13;99780.59;4476014;32;34458;-75
2022/09/01 12:37:14;;;;;;;1.45;1.08;;;;;;;22.16;40.16;99774.94;4465947;32;33212;-70
2022/09/01 12:39:44;;;;;;;1.62;1.05;;;;;;;22.23;40.74;99778.06;4467335;32;33823;-70
2022/09/01 12:42:23;;;;;;;0.80;0.80;;;;;;;22.57;41.69;99776.38;4465638;32;33831;-70
2022/09/01 12:45:01;;;;;;;1.58;1.05;;;;;;;22.01;38.77;99776.25;4477949;32;33451;-70
2022/09/01 12:47:34;;;;;;;1.10;0.90;;;;;;;22.16;38.19;99768.59;4462589;32;33049;-72
2022/09/01 12:50:13;;;;;;;1.20;1.00;;;;;;;22.43;40.79;99773.78;4465823;32;33312;-71
2022/09/01 12:52:54;;;;;;;1.33;1.00;;;;;;;22.05;41.20;99768.09;4471443;32;35388;-70
2022/09/01 12:55:24;;;;;;;1.90;1.00;;;;;;;22.13;39.75;99772.81;4483202;32;33602;-71
2022/09/01 12:58:11;;;;;;;1.92;1.00;;;;;;;22.08;40.93;99770.22;4482094;32;33434;-74
2022/09/01 13:00:57;;;;;;;1.20;0.82;;;;;;;22.15;39.30;99770.53;4481825;32;33691;-75
2022/09/01 13:03:28;;;;;;;1.00;0.90;;;;;;;22.15;39.87;99769.72;4486907;31;33864;-75
2022/09/01 13:05:58;;;;;;;1.20;0.93;;;;;;;22.53;38.69;99764.34;4480839;32;33946;-72
2022/09/01 13:08:31;;;;;;;1.20;0.90;;;;;;;22.15;40.12;99769.72;4471728;32;34358;-73
2022/09/01 13:11:04;;;;;;;1.03;0.93;;;;;;;22.17;40.85;99768.25;4468978;32;33961;-73
2022/09/01 13:13:34;;;;;;;0.93;0.80;;;;;;;22.42;39.58;99763.06;4482128;32;34087;-72
2022/09/01 13:16:11;;;;;;;1.50;1.00;;;;;;;22.21;41.11;99762.91;4483329;32;33681;-73
2022/09/01 13:18:41;;;;;;;1.25;1.02;;;;;;;22.27;39.39;99761.62;4484583;32;34057;-72
2022/09/01 13:21:30;;;;;;;1.17;1.00;;;;;;;22.70;40.14;99761.53;4484388;32;33828;-71
2022/09/01 13:23:58;;;;;;;1.42;1.12;;;;;;;22.94;40.39;99762.94;4485624;32;34663;-72
2022/09/01 13:26:26;;;;;;;0.93;0.80;;;;;;;23.03;39.61;99771.22;4485498;32;33638;-73
2022/09/01 13:28:54;;;;;;;1.37;1.15;;;;;;;23.15;37.42;99760.25;4484417;32;33337;-71
2022/09/01 13:31:22;;;;;;;1.52;0.93;;;;;;;22.89;39.46;99765.88;4485449;32;34848;-85
2022/09/01 13:33:58;;;;;;;2.25;0.93;;;;;;;22.60;38.06;99764.66;4486022;32;33949;-72
2022/09/01 13:36:46;;;;;;;1.15;1.00;;;;;;;22.46;38.57;99769.56;4483398;32;33669;-72
2022/09/01 13:39:19;;;;;;;1.37;0.98;;;;;;;22.44;37.66;99771.84;4485928;32;33554;-73
2022/09/01 13:41:48;;;;;;;1.00;0.90;;;;;;;22.29;37.75;99764.87;4484080;32;33749;-72
2022/09/01 13:44:17;;;;;;;0.70;0.70;;;;;;;22.55;39.11;99759.31;4485787;32;34441;-77
2022/09/01 13:46:46;;;;;;;0.95;0.88;;;;;;;22.64;38.95;99764.81;4484496;32;33937;-71
2022/09/01 13:49:33;;;;;;;0.80;0.80;;;;;;;22.99;39.42;99767.47;4473269;32;33330;-74
2022/09/01 13:52:21;;;;;;;0.88;0.80;;;;;;;22.62;35.93;99770.66;4484337;32;34675;-72
2022/09/01 13:54:48;;;;;;;2.65;1.20;;;;;;;22.61;37.22;99768.22;4484963;32;35254;-73
2022/09/01 13:57:16;;;;;;;1.95;0.80;;;;;;;22.47;37.86;99762.91;4482847;32;34102;-70
2022/09/01 13:59:44;;;;;;;1.15;0.90;;;;;;;22.45;38.33;99774.28;4485839;32;33617;-72
2022/09/01 14:02:11;;;;;;;0.90;0.80;;;;;;;22.61;38.49;99771.78;4486003;32;33644;-71
2022/09/01 14:04:39;;;;;;;0.70;0.70;;;;;;;22.56;37.40;99782.25;4485910;32;34165;-72
2022/09/01 14:07:07;;;;;;;0.88;0.88;;;;;;;22.73;36.83;99771.13;4484741;32;34492;-70
2022/09/01 14:09:34;;;;;;;0.70;0.70;;;;;;;22.95;36.66;99761.78;4485668;32;33128;-70
2022/09/01 14:12:04;;;;;;;2.00;1.10;;;;;;;22.70;36.60;99772.59;4480847;32;33796;-70
2022/09/01 14:14:32;;;;;;;1.10;1.00;;;;;;;22.31;36.91;99774.47;4478425;32;35030;-74
2022/09/01 14:17:20;;;;;;;3.80;1.08;;;;;;;22.45;38.43;99771.50;4484575;32;33815;-71
2022/09/01 14:19:50;;;;;;;1.00;0.90;;;;;;;22.53;36.69;99772.66;4485873;32;34140;-74
2022/09/01 14:22:17;;;;;;;0.90;0.90;;;;;;;22.62;36.69;99769.88;4484878;32;33818;-75
2022/09/01 14:24:46;;;;;;;1.33;0.90;;;;;;;22.86;37.00;99766.53;4486004;32;35125;-75
2022/09/01 14:27:13;;;;;;;1.52;0.90;;;;;;;22.74;34.91;99764.44;4485892;32;34108;-74
2022/09/01 14:29:41;;;;;;;0.93;0.82;;;;;;;22.71;37.27;99767.88;4485732;32;34370;-77
2022/09/01 14:32:07;;;;;;;0.80;0.80;;;;;;;22.54;35.02;99768.72;4485807;32;33961;-74
2022/09/01 14:34:36;;;;;;;1.60;0.90;;;;;;;22.63;35.04;99763.97;4485685;32;35134;-78
2022/09/01 14:37:03;;;;;;;1.23;0.90;;;;;;;22.25;36.88;99764.72;4485913;32;33754;-76
2022/09/01 14:39:31;;;;;;;0.93;0.80;;;;;;;22.59;36.71;99767.75;4468462;32;33470;-76
2022/09/01 14:41:59;;;;;;;1.62;0.90;;;;;;;22.68;36.96;99774.09;4469543;32;34071;-74
2022/09/01 14:44:26;;;;;;;1.30;0.90;;;;;;;22.29;35.36;99764.87;4469989;32;34063;-74
2022/09/01 14:46:54;;;;;;;1.20;0.93;;;;;;;22.71;36.90;99770.66;4474091;32;33948;-71
2022/09/01 14:49:21;;;;;;;1.10;0.98;;;;;;;23.06;35.64;99778.84;4483609;32;33480;-70
2022/09/01 14:51:49;;;;;;;1.35;0.98;;;;;;;23.05;36.61;99771.72;4483512;31;34605;-69
2022/09/01 14:54:38;;;;;;;1.33;0.90;;;;;;;22.92;35.21;99773.53;4484544;32;33987;-71
2022/09/01 14:57:06;;;;;;;1.10;1.00;;;;;;;23.20;36.02;99773.13;4482360;32;33630;-74
2022/09/01 14:59:53;;;;;;;1.87;1.12;;;;;;;22.74;33.97;99778.28;4483570;32;33366;-73
2022/09/01 15:02:22;;;;;;;0.65;0.65;;;;;;;22.76;33.95;99773.22;4484745;32;34778;-73
2022/09/01 15:04:50;;;;;;;1.12;0.85;;;;;;;22.88;32.68;99775.31;4483881;32;35097;-71
2022/09/01 15:07:18;;;;;;;1.27;0.90;;;;;;;22.82;33.36;99771.91;4481460;32;32534;-72
2022/09/01 15:09:46;;;;;;;1.75;1.00;;;;;;;22.42;34.45;99771.34;4481789;32;32403;-71
2022/09/01 15:12:13;;;;;;;0.80;0.80;;;;;;;23.09;34.76;99769.91;4483723;32;33179;-71
2022/09/01 15:14:41;;;;;;;1.05;0.93;;;;;;;22.97;34.37;99776.09;4485101;32;35036;-71
2022/09/01 15:17:08;;;;;;;1.27;0.90;;;;;;;23.03;35.55;99774.81;4485467;32;34608;-73
2022/09/01 15:19:36;;;;;;;1.12;0.85;;;;;;;22.56;34.70;99774.75;4484276;32;34274;-71
2022/09/01 15:22:05;;;;;;;0.65;0.62;;;;;;;22.70;35.13;99767.06;4480586;32;34681;-72
2022/09/01 15:24:34;;;;;;;0.70;0.68;;;;;;;22.82;35.64;99776.62;4482535;32;35013;-70
2022/09/01 15:27:01;;;;;;;3.60;0.88;;;;;;;22.87;35.43;99768.16;4469234;32;34770;-71
2022/09/01 15:29:32;;;;;;;0.80;0.80;;;;;;;22.70;35.10;99780.91;4475644;32;33224;-72
2022/09/01 15:32:00;;;;;;;1.95;1.15;;;;;;;22.92;34.55;99773.53;4467988;32;34760;-68
2022/09/01 15:34:28;;;;;;;0.93;0.85;;;;;;;22.71;35.38;99779.75;4467639;32;34376;-70
2022/09/01 15:36:55;;;;;;;1.33;0.98;;;;;;;22.77;35.42;99777.63;4472042;32;34046;-70
2022/09/01 15:39:23;;;;;;;1.35;0.90;;;;;;;22.10;35.34;99776.25;4482740;31;33120;-70
2022/09/01 15:41:50;;;;;;;1.42;0.90;;;;;;;22.26;36.04;99779.34;4482604;32;33976;-73
2022/09/01 15:44:18;;;;;;;2.58;1.00;;;;;;;22.28;33.89;99772.34;4482124;32;34850;-75
2022/09/01 15:46:45;;;;;;;0.70;0.70;;;;;;;22.24;35.84;99784.38;4482179;32;33861;-74
2022/09/01 15:49:13;;;;;;;1.58;0.82;;;;;;;22.68;36.11;99783.19;4483324;32;33541;-74
2022/09/01 15:51:42;;;;;;;0.80;0.80;;;;;;;22.50;34.87;99778.81;4482919;32;35135;-71
2022/09/01 15:54:19;;;;;;;0.85;0.75;;;;;;;22.32;35.27;99778.03;4483394;32;34467;-73
2022/09/01 15:56:47;;;;;;;1.37;0.90;;;;;;;22.30;35.30;99774.78;4482612;32;34042;-71
2022/09/01 15:59:15;;;;;;;1.42;1.00;;;;;;;22.63;35.88;99777.00;4477084;32;33347;-73
2022/09/01 16:01:44;;;;;;;1.35;1.00;;;;;;;22.27;36.57;99775.47;4472244;32;33975;-71
2022/09/01 16:04:15;;;;;;;1.15;0.90;;;;;;;22.60;35.75;99781.25;4481018;32;35097;-72
2022/09/01 16:06:48;;;;;;;0.90;0.80;;;;;;;22.47;36.11;99785.00;4482536;32;33192;-71
2022/09/01 16:09:17;;;;;;;2.35;1.02;;;;;;;22.89;35.89;99794.38;4483533;32;34032;-75
2022/09/01 16:11:44;;;;;;;0.80;0.80;;;;;;;22.36;35.29;99787.31;4469547;32;34673;-71
2022/09/01 16:14:13;;;;;;;0.80;0.80;;;;;;;22.42;36.13;99785.16;4466556;32;33559;-71
2022/09/01 16:17:19;;;;;;;1.92;1.08;;;;;;;22.67;36.42;99792.59;4467800;32;34291;-71
2022/09/01 16:19:55;;;;;;;;;;;;;;;23.02;36.13;99787.00;4394733;32;34070;-71
2022/09/01 16:22:32;;;;;;;1.15;0.90;;;;;;;23.23;35.25;99784.31;4466697;32;33691;-72
2022/09/01 16:25:21;;;;;;;1.83;0.85;;;;;;;23.04;35.34;99784.72;4468414;32;32761;-73
2022/09/01 16:27:55;;;;;;;0.80;0.80;;;;;;;22.77;36.11;99782.34;4474054;32;33900;-74
2022/09/01 16:30:30;;;;;;;1.05;0.90;;;;;;;22.71;35.62;99782.50;4482487;32;34047;-71
2022/09/01 16:33:03;;;;;;;1.00;0.73;;;;;;;22.86;36.43;99778.41;4481432;32;33490;-72
2022/09/01 16:35:43;;;;;;;0.80;0.80;;;;;;;22.42;36.61;99774.94;4481633;32;34070;-71
2022/09/01 16:38:16;;;;;;;1.20;0.80;;;;;;;22.67;36.59;99778.78;4466854;32;33796;-73
2022/09/01 16:40:47;;;;;;;1.83;1.00;;;;;;;22.76;37.27;99778.75;4480629;32;33680;-70
2022/09/01 16:43:39;;;;;;;0.80;0.80;;;;;;;22.80;36.47;99782.50;4482347;32;34689;-70
2022/09/01 16:46:18;;;;;;;1.30;0.93;;;;;;;22.77;36.79;99774.88;4480579;32;33927;-70
2022/09/01 16:49:03;;;;;;;1.65;0.90;;;;;;;22.93;35.84;99783.44;4482139;32;35170;-72
2022/09/01 16:52:08;;;;;;;1.15;0.70;;;;;;;22.75;36.63;99781.88;4481730;32;34300;-71
2022/09/01 16:55:04;;;;;;;1.12;0.90;;;;;;;22.67;39.77;99784.31;4483155;32;34045;-74
2022/09/01 16:57:56;;;;;;;1.10;0.80;;;;;;;22.78;38.16;99787.53;4469676;32;34284;-72
2022/09/01 17:00:35;;;;;;;1.73;0.90;;;;;;;22.78;39.37;99795.03;4481343;32;34085;-72
2022/09/01 17:03:16;;;;;;;2.87;1.00;;;;;;;23.05;40.14;99791.88;4483463;32;33474;-71
2022/09/01 17:06:16;;;;;;;2.15;1.10;;;;;;;23.26;41.24;99797.50;4470792;32;34678;-74
2022/09/01 17:08:51;;;;;;;2.33;1.08;;;;;;;23.21;41.89;99794.09;4483141;32;34909;-70
2022/09/01 17:11:26;;;;;;;1.48;0.90;;;;;;;23.19;42.16;99791.66;4482981;32;35186;-72
2022/09/01 17:13:54;;;;;;;1.15;0.88;;;;;;;23.12;43.30;99796.91;4484241;32;33547;-73
2022/09/01 17:16:36;;;;;;;2.95;1.08;;;;;;;23.13;42.51;99802.13;4477514;32;33871;-72
2022/09/01 17:19:09;;;;;;;1.10;0.90;;;;;;;23.17;42.07;99793.13;4467623;32;34264;-71
2022/09/01 17:21:41;;;;;;;1.17;0.90;;;;;;;23.24;41.90;99794.25;4469675;32;34755;-73
2022/09/01 17:24:24;;;;;;;1.08;0.98;;;;;;;22.94;42.30;99794.19;4468936;32;33342;-77
2022/09/01 17:26:55;;;;;;;1.37;0.90;;;;;;;22.85;42.67;99798.94;4468559;32;33604;-77
2022/09/01 17:29:28;;;;;;;1.08;0.90;;;;;;;22.86;42.49;99797.78;4468287;32;33895;-73
2022/09/01 17:32:15;;;;;;;0.90;0.77;;;;;;;22.64;43.04;99798.81;4467919;32;33827;-76
2022/09/01 17:35:26;;;;;;;1.10;1.00;;;;;;;22.62;42.96;99806.62;4468730;32;33563;-76
2022/09/01 17:38:05;;;;;;;1.00;0.90;;;;;;;22.82;42.79;99804.31;4479068;32;33404;-73
2022/09/01 17:40:41;;;;;;;1.40;0.98;;;;;;;22.93;42.82;99808.34;4468681;32;34177;-78
2022/09/01 17:43:28;;;;;;;0.95;0.85;;;;;;;21.96;44.15;99809.53;4482672;32;33477;-79
2022/09/01 17:46:03;;;;;;;1.20;1.00;;;;;;;22.01;43.67;99817.69;4482755;32;33447;-72
2022/09/01 17:48:39;;;;;;;2.35;1.10;;;;;;;21.88;44.88;99811.16;4483610;32;33645;-80
2022/09/01 17:51:32;;;;;;;1.23;1.00;;;;;;;22.12;43.14;99816.22;4482793;32;35461;-80
2022/09/01 17:54:18;;;;;;;1.50;1.02;;;;;;;22.03;43.64;99823.69;4483518;32;33860;-79
2022/09/01 17:57:07;;;;;;;1.27;1.12;;;;;;;22.01;43.25;99819.59;4482658;32;32990;-77
2022/09/01 18:00:00;;;;;;;1.33;1.20;;;;;;;21.81;44.61;99830.12;4484243;32;34010;-79
2022/09/01 18:03:01;;;;;;;1.70;1.25;;;;;;;21.66;44.63;99825.91;4472531;32;33798;-80
2022/09/01 18:05:38;;;;;;;3.03;1.35;;;;;;;21.58;45.77;99840.50;4414729;32;34491;-88
2022/09/01 18:08:12;;;;;;;2.62;1.50;;;;;;;21.37;46.99;99833.91;4481874;32;33138;-81
2022/09/01 18:10:45;;;;;;;1.65;1.10;;;;;;;21.26;48.45;99844.41;4483865;32;34960;-81
2022/09/01 18:13:22;;;;;;;6.43;1.80;;;;;;;21.33;48.10;99843.94;4482497;32;34992;-80
2022/09/01 18:16:15;;;;;;;6.50;3.62;;;;;;;;;;4482765;32;33827;-81
2022/09/01 18:18:49;;;;;;;5.35;3.17;;;;;;;21.28;48.73;99854.00;4484219;32;33245;-74
2022/09/01 18:21:29;;;;;;;5.32;2.25;;;;;;;21.39;49.15;99857.28;4482789;32;33946;-72
2022/09/01 18:24:10;;;;;;;3.92;2.15;;;;;;;21.15;49.60;99854.09;4482049;32;33650;-72
2022/09/01 18:26:40;;;;;;;3.53;1.90;;;;;;;20.95;50.78;99853.50;4482534;32;34001;-81
2022/09/01 18:29:09;;;;;;;4.00;1.70;;;;;;;20.96;49.96;99857.88;4483523;32;33452;-79
2022/09/01 18:31:49;;;;;;;3.58;1.77;;;;;;;21.18;49.51;99865.28;4483225;32;33839;-81
2022/09/01 18:34:47;;;;;;;2.25;1.45;;;;;;;21.02;50.29;99867.66;4480606;32;34007;-81
2022/09/01 18:37:24;;;;;;;4.07;1.83;;;;;;;21.00;50.32;99869.91;4474912;32;32239;-82
2022/09/01 18:40:01;;;;;;;4.18;1.50;;;;;;;20.71;52.16;99869.56;4478678;32;33328;-80
2022/09/01 18:42:34;;;;;;;3.33;1.80;;;;;;;20.92;50.81;99867.91;4483309;32;34431;-78
2022/09/01 18:45:04;;;;;;;3.13;1.90;;;;;;;20.75;51.73;99867.81;4482858;32;34621;-80
2022/09/01 18:47:34;;;;;;;2.28;1.90;;;;;;;20.63;51.95;99860.91;4484322;32;33708;-81
2022/09/01 18:50:06;;;;;;;2.40;1.50;;;;;;;20.60;53.29;99860.72;4482805;32;33604;-82
2022/09/01 18:53:02;;;;;;;2.50;1.70;;;;;;;20.57;52.95;99869.59;4468826;32;34510;-83
2022/09/01 18:55:32;;;;;;;2.08;1.50;;;;;;;20.45;53.93;99872.91;4477623;32;34884;-83
2022/09/01 18:58:07;;;;;;;2.87;1.40;;;;;;;20.61;53.15;99879.72;4484006;32;34713;-82
2022/09/01 19:00:46;;;;;;;3.75;1.73;;;;;;;20.47;53.65;99871.47;4482354;32;34426;-75
2022/09/01 19:03:28;;;;;;;1.75;1.60;;;;;;;20.49;53.39;99876.66;4482802;32;34009;-85
2022/09/01 19:06:17;;;;;;;1.62;1.40;;;;;;;20.23;54.30;99877.25;4476158;32;34060;-83
2022/09/01 19:09:07;;;;;;;3.83;1.65;;;;;;;20.61;53.96;99876.97;4483102;32;33929;-83
2022/09/01 19:12:10;;;;;;;2.53;1.55;;;;;;;20.11;54.80;99877.00;4483323;32;33420;-77
2022/09/01 19:15:02;;;;;;;2.22;1.70;;;;;;;20.18;55.46;99882.06;4481172;32;34631;-76
2022/09/01 19:17:38;;;;;;;1.87;1.60;;;;;;;20.29;55.55;99878.75;4480166;32;34208;-73
2022/09/01 19:20:10;;;;;;;2.37;1.40;;;;;;;20.20;55.04;99877.06;4475977;32;34714;-71
2022/09/01 19:22:59;;;;;;;2.03;1.50;;;;;;;20.17;55.18;99875.75;4471478;32;35629;-82
2022/09/01 19:25:35;;;;;;;2.40;1.60;;;;;;;20.18;55.21;99876.56;4477841;32;33848;-75
2022/09/01 19:28:15;;;;;;;3.08;1.90;;;;;;;19.95;55.65;99886.69;4482454;32;34067;-80
2022/09/01 19:30:47;;;;;;;2.25;1.60;;;;;;;20.00;56.07;99889.31;4483189;32;34529;-79
2022/09/01 19:33:19;;;;;;;2.70;1.70;;;;;;;20.01;55.69;99891.78;4472967;32;33100;-82
2022/09/01 19:35:48;;;;;;;2.20;1.60;;;;;;;20.03;55.00;99883.22;4474246;32;33953;-77
2022/09/01 19:38:20;;;;;;;2.12;1.30;;;;;;;20.24;54.85;99881.66;4482808;32;35055;-73
2022/09/01 19:40:50;;;;;;;2.45;1.50;;;;;;;19.78;56.23;99893.63;4473350;32;33893;-75
2022/09/01 19:43:19;;;;;;;1.40;1.30;;;;;;;19.82;55.92;99888.34;4467377;32;32631;-74
2022/09/01 19:46:08;;;;;;;1.87;1.45;;;;;;;19.78;55.72;99890.88;4477319;32;33939;-75
2022/09/01 19:49:00;;;;;;;2.87;1.67;;;;;;;19.66;56.45;99887.81;4474309;32;33923;-74
2022/09/01 19:52:08;;;;;;;2.10;1.67;;;;;;;19.81;56.29;99892.22;4475498;32;34661;-78
2022/09/01 19:54:56;;;;;;;2.85;1.62;;;;;;;19.88;55.82;99890.69;4447343;32;34285;-77
2022/09/01 19:57:33;;;;;;;3.00;1.62;;;;;;;19.53;57.37;99894.94;4475108;32;33535;-77
2022/09/01 20:00:10;;;;;;;2.28;1.58;;;;;;;19.62;56.79;99904.13;4475522;32;34996;-72
2022/09/01 20:02:59;;;;;;;2.65;1.60;;;;;;;19.70;56.24;99897.13;4482588;32;34501;-72
2022/09/01 20:05:49;;;;;;;2.50;1.65;;;;;;;19.86;55.79;99900.38;4473565;32;33507;-72
2022/09/01 20:08:29;;;;;;;2.00;1.45;;;;;;;19.44;56.95;99905.84;4473964;32;34060;-75
2022/09/01 20:11:34;;;;;;;2.45;1.65;;;;;;;19.65;56.86;99905.44;4482094;32;34825;-72
2022/09/01 20:14:31;;;;;;;2.20;1.70;;;;;;;19.65;56.20;99902.69;4482239;32;34738;-79
2022/09/01 20:17:03;;;;;;;2.20;1.50;;;;;;;19.34;56.86;99910.72;4475249;32;33356;-80
2022/09/01 20:19:58;;;;;;;1.87;1.40;;;;;;;19.46;56.34;99906.34;4476099;32;34609;-79